createdAt,value
2022-09-07T00:00:18.489Z,55.69
2022-09-07T00:01:18.483Z,55.32
2022-09-07T00:02:18.477Z,55.41
2022-09-07T00:03:18.649Z,55.22
2022-09-07T00:04:18.582Z,55.32
2022-09-07T00:05:18.476Z,55.32
2022-09-07T00:06:18.476Z,55.12
2022-09-07T00:07:18.477Z,55.51
2022-09-07T00:08:18.495Z,55.22
2022-09-07T00:09:18.483Z,55.41
2022-09-07T00:10:18.491Z,55.22
2022-09-07T00:11:18.481Z,55.22
2022-09-07T00:12:18.471Z,55.22
2022-09-07T00:13:18.475Z,55.69
2022-09-07T00:14:18.481Z,55.89
2022-09-07T00:15:18.487Z,56.08
2022-09-07T00:16:18.574Z,55.79
2022-09-07T00:17:18.483Z,55.79
2022-09-07T00:18:18.506Z,55.89
2022-09-07T00:19:18.522Z,55.41
2022-09-07T00:20:18.484Z,55.99
2022-09-07T00:21:18.485Z,56.18
2022-09-07T00:22:18.485Z,56.08
2022-09-07T00:23:18.483Z,56.37
2022-09-07T00:24:18.496Z,56.08
2022-09-07T00:25:18.474Z,56.27
2022-09-07T00:26:18.484Z,55.99
2022-09-07T00:27:18.486Z,55.96
2022-09-07T00:28:18.481Z,56.34
2022-09-07T00:29:18.516Z,56.27
2022-09-07T00:30:18.483Z,56.24
2022-09-07T00:31:18.553Z,56.53
2022-09-07T00:32:18.499Z,56.73
2022-09-07T00:33:18.480Z,57.01
2022-09-07T00:34:18.482Z,57.11
2022-09-07T00:35:18.480Z,57.33
2022-09-07T00:36:18.483Z,57.01
2022-09-07T00:37:18.485Z,56.53
2022-09-07T00:38:18.485Z,56.66
2022-09-07T00:39:18.483Z,56.44
2022-09-07T00:40:18.485Z,56.53
2022-09-07T00:41:18.485Z,56.82
2022-09-07T00:42:18.491Z,56.53
2022-09-07T00:43:18.479Z,57.11
2022-09-07T00:44:18.491Z,57.40
2022-09-07T00:45:18.482Z,57.01
2022-09-07T00:46:18.549Z,57.01
2022-09-07T00:47:18.505Z,57.59
2022-09-07T00:48:18.496Z,57.30
2022-09-07T00:49:18.497Z,57.40
2022-09-07T00:50:18.491Z,57.50
2022-09-07T00:51:18.530Z,57.01
2022-09-07T00:52:18.487Z,56.82
2022-09-07T00:53:18.500Z,57.01
2022-09-07T00:54:18.501Z,57.59
2022-09-07T00:55:18.486Z,57.11
2022-09-07T00:56:18.484Z,57.78
2022-09-07T00:57:18.494Z,57.21
2022-09-07T00:58:18.502Z,57.21
2022-09-07T00:59:18.488Z,57.40
2022-09-07T01:00:18.492Z,57.01
2022-09-07T01:01:18.659Z,56.92
2022-09-07T01:02:18.593Z,57.01
2022-09-07T01:03:18.489Z,57.30
2022-09-07T01:04:18.482Z,57.01
2022-09-07T01:05:18.492Z,57.01
2022-09-07T01:06:18.508Z,57.40
2022-09-07T01:07:18.488Z,57.01
2022-09-07T01:08:18.497Z,57.50
2022-09-07T01:09:18.483Z,57.21
2022-09-07T01:10:18.490Z,57.30
2022-09-07T01:11:18.490Z,56.92
2022-09-07T01:12:18.489Z,56.92
2022-09-07T01:13:18.488Z,56.92
2022-09-07T01:14:18.492Z,56.92
2022-09-07T01:15:18.502Z,57.30
2022-09-07T01:16:18.520Z,57.11
2022-09-07T01:17:18.495Z,57.11
2022-09-07T01:18:18.484Z,57.21
2022-09-07T01:19:18.490Z,57.18
2022-09-07T01:20:18.495Z,56.98
2022-09-07T01:21:18.490Z,57.21
2022-09-07T01:22:18.498Z,57.28
2022-09-07T01:23:18.489Z,57.28
2022-09-07T01:24:18.484Z,57.28
2022-09-07T01:25:18.481Z,57.37
2022-09-07T01:26:18.489Z,57.85
2022-09-07T01:27:18.485Z,57.75
2022-09-07T01:28:18.486Z,58.04
2022-09-07T01:29:18.502Z,58.04
2022-09-07T01:30:18.496Z,57.95
2022-09-07T01:31:18.584Z,57.85
2022-09-07T01:32:18.510Z,58.04
2022-09-07T01:33:18.486Z,58.14
2022-09-07T01:34:18.485Z,58.04
2022-09-07T01:35:18.526Z,57.95
2022-09-07T01:36:18.486Z,58.04
2022-09-07T01:37:18.506Z,57.85
2022-09-07T01:38:18.490Z,57.56
2022-09-07T01:39:18.481Z,57.95
2022-09-07T01:40:18.487Z,58.04
2022-09-07T01:41:18.489Z,57.95
2022-09-07T01:42:18.483Z,57.85
2022-09-07T01:43:18.492Z,58.04
2022-09-07T01:44:18.498Z,57.95
2022-09-07T01:45:18.489Z,58.14
2022-09-07T01:46:18.537Z,58.33
2022-09-07T01:47:18.483Z,58.33
2022-09-07T01:48:18.492Z,58.62
2022-09-07T01:49:18.497Z,58.42
2022-09-07T01:50:18.497Z,58.52
2022-09-07T01:51:18.494Z,58.42
2022-09-07T01:52:18.485Z,58.52
2022-09-07T01:53:18.487Z,58.33
2022-09-07T01:54:18.483Z,58.81
2022-09-07T01:55:18.485Z,58.62
2022-09-07T01:56:18.477Z,58.42
2022-09-07T01:57:18.479Z,58.42
2022-09-07T01:58:18.483Z,58.49
2022-09-07T01:59:18.500Z,58.69
2022-09-07T02:00:18.499Z,58.87
2022-09-07T02:01:18.518Z,58.78
2022-09-07T02:02:18.515Z,58.62
2022-09-07T02:03:18.519Z,58.39
2022-09-07T02:04:18.478Z,58.97
2022-09-07T02:05:18.504Z,58.97
2022-09-07T02:06:18.513Z,59.36
2022-09-07T02:07:18.484Z,59.26
2022-09-07T02:08:18.477Z,59.36
2022-09-07T02:09:18.477Z,58.87
2022-09-07T02:10:18.492Z,59.26
2022-09-07T02:11:18.485Z,59.26
2022-09-07T02:12:18.475Z,59.36
2022-09-07T02:13:18.491Z,59.36
2022-09-07T02:14:18.477Z,58.87
2022-09-07T02:15:18.476Z,58.78
2022-09-07T02:16:18.522Z,59.26
2022-09-07T02:17:18.481Z,59.74
2022-09-07T02:18:18.483Z,59.74
2022-09-07T02:19:18.470Z,59.36
2022-09-07T02:20:18.499Z,59.55
2022-09-07T02:21:18.470Z,59.55
2022-09-07T02:22:18.519Z,59.55
2022-09-07T02:23:18.472Z,59.64
2022-09-07T02:24:18.469Z,59.55
2022-09-07T02:25:18.472Z,59.74
2022-09-07T02:26:18.481Z,59.74
2022-09-07T02:27:18.481Z,59.83
2022-09-07T02:28:18.476Z,59.64
2022-09-07T02:29:18.478Z,59.45
2022-09-07T02:30:18.469Z,59.93
2022-09-07T02:31:18.578Z,60.41
2022-09-07T02:32:18.469Z,60.50
2022-09-07T02:33:18.470Z,60.12
2022-09-07T02:34:18.486Z,60.22
2022-09-07T02:35:18.470Z,60.50
2022-09-07T02:36:18.463Z,60.12
2022-09-07T02:37:18.463Z,60.22
2022-09-07T02:38:18.473Z,60.60
2022-09-07T02:39:18.470Z,60.79
2022-09-07T02:40:18.476Z,60.31
2022-09-07T02:41:18.475Z,60.50
2022-09-07T02:42:18.463Z,60.50
2022-09-07T02:43:18.460Z,60.41
2022-09-07T02:44:18.486Z,60.41
2022-09-07T02:45:18.467Z,60.12
2022-09-07T02:46:18.515Z,60.12
2022-09-07T02:47:18.483Z,60.60
2022-09-07T02:48:18.461Z,60.22
2022-09-07T02:49:18.454Z,60.22
2022-09-07T02:50:18.458Z,60.50
2022-09-07T02:51:18.488Z,60.70
2022-09-07T02:52:18.456Z,60.99
2022-09-07T02:53:18.457Z,60.99
2022-09-07T02:54:18.471Z,60.99
2022-09-07T02:55:18.452Z,60.99
2022-09-07T02:56:18.454Z,60.99
2022-09-07T02:57:18.462Z,60.79
2022-09-07T02:58:18.522Z,60.79
2022-09-07T02:59:18.453Z,60.79
2022-09-07T03:00:18.448Z,60.99
2022-09-07T03:01:18.489Z,61.08
2022-09-07T03:02:18.498Z,61.08
2022-09-07T03:03:18.451Z,61.08
2022-09-07T03:04:18.450Z,60.60
2022-09-07T03:05:18.454Z,60.99
2022-09-07T03:06:18.448Z,61.08
2022-09-07T03:07:18.472Z,61.15
2022-09-07T03:08:18.470Z,61.24
2022-09-07T03:09:18.450Z,61.05
2022-09-07T03:10:18.443Z,61.43
2022-09-07T03:11:18.544Z,61.24
2022-09-07T03:12:18.447Z,61.34
2022-09-07T03:13:18.476Z,61.15
2022-09-07T03:14:18.443Z,61.24
2022-09-07T03:15:18.447Z,61.91
2022-09-07T03:16:18.566Z,61.15
2022-09-07T03:17:18.444Z,61.63
2022-09-07T03:18:18.440Z,61.91
2022-09-07T03:19:18.438Z,61.91
2022-09-07T03:20:18.441Z,61.63
2022-09-07T03:21:18.445Z,61.82
2022-09-07T03:22:18.437Z,61.91
2022-09-07T03:23:18.444Z,61.72
2022-09-07T03:24:18.448Z,62.01
2022-09-07T03:25:18.435Z,62.20
2022-09-07T03:26:18.438Z,61.91
2022-09-07T03:27:18.435Z,62.20
2022-09-07T03:28:18.435Z,62.20
2022-09-07T03:29:18.430Z,62.30
2022-09-07T03:30:18.425Z,62.30
2022-09-07T03:31:18.515Z,62.10
2022-09-07T03:32:18.436Z,62.20
2022-09-07T03:33:18.433Z,62.01
2022-09-07T03:34:18.446Z,62.30
2022-09-07T03:35:18.434Z,62.49
2022-09-07T03:36:18.427Z,61.91
2022-09-07T03:37:18.431Z,62.30
2022-09-07T03:38:18.427Z,62.39
2022-09-07T03:39:18.438Z,62.10
2022-09-07T03:40:18.433Z,62.20
2022-09-07T03:41:18.421Z,62.39
2022-09-07T03:42:18.426Z,62.49
2022-09-07T03:43:18.422Z,62.59
2022-09-07T03:44:18.419Z,62.30
2022-09-07T03:45:18.439Z,62.49
2022-09-07T03:46:18.463Z,62.49
2022-09-07T03:47:18.438Z,62.39
2022-09-07T03:48:18.425Z,62.96
2022-09-07T03:49:18.416Z,63.06
2022-09-07T03:50:18.413Z,63.06
2022-09-07T03:51:18.415Z,62.96
2022-09-07T03:52:18.420Z,63.16
2022-09-07T03:53:18.416Z,63.54
2022-09-07T03:54:18.420Z,62.96
2022-09-07T03:55:18.413Z,62.96
2022-09-07T03:56:18.439Z,62.65
2022-09-07T03:57:18.413Z,62.96
2022-09-07T03:58:18.419Z,63.60
2022-09-07T03:59:18.412Z,63.22
2022-09-07T04:00:18.411Z,62.77
2022-09-07T04:01:18.508Z,63.13
2022-09-07T04:02:18.426Z,63.13
2022-09-07T04:03:18.420Z,63.26
2022-09-07T04:04:18.433Z,63.03
2022-09-07T04:05:18.407Z,62.74
2022-09-07T04:06:18.426Z,63.32
2022-09-07T04:07:18.401Z,63.42
2022-09-07T04:08:18.402Z,63.16
2022-09-07T04:09:18.397Z,63.22
2022-09-07T04:10:18.404Z,63.42
2022-09-07T04:11:18.398Z,63.22
2022-09-07T04:12:18.406Z,63.51
2022-09-07T04:13:18.399Z,63.42
2022-09-07T04:14:18.406Z,63.22
2022-09-07T04:15:18.397Z,63.99
2022-09-07T04:16:18.445Z,63.51
2022-09-07T04:17:18.390Z,63.89
2022-09-07T04:18:18.391Z,63.80
2022-09-07T04:19:18.390Z,63.89
2022-09-07T04:20:18.403Z,63.89
2022-09-07T04:21:18.386Z,64.09
2022-09-07T04:22:18.388Z,63.99
2022-09-07T04:23:18.387Z,64.28
2022-09-07T04:24:18.379Z,64.47
2022-09-07T04:25:18.396Z,64.09
2022-09-07T04:26:18.391Z,64.37
2022-09-07T04:27:18.395Z,64.37
2022-09-07T04:28:18.395Z,64.28
2022-09-07T04:29:18.384Z,64.28
2022-09-07T04:30:18.397Z,64.37
2022-09-07T04:31:18.426Z,64.37
2022-09-07T04:32:18.370Z,64.09
2022-09-07T04:33:18.372Z,64.18
2022-09-07T04:34:18.378Z,64.28
2022-09-07T04:35:18.377Z,64.28
2022-09-07T04:36:18.384Z,64.28
2022-09-07T04:37:18.377Z,64.37
2022-09-07T04:38:18.375Z,64.56
2022-09-07T04:39:18.468Z,64.47
2022-09-07T04:40:18.384Z,64.28
2022-09-07T04:41:18.378Z,64.56
2022-09-07T04:42:18.373Z,64.37
2022-09-07T04:43:18.385Z,64.37
2022-09-07T04:44:18.402Z,64.28
2022-09-07T04:45:18.362Z,64.28
2022-09-07T04:46:18.436Z,64.85
2022-09-07T04:47:18.374Z,64.95
2022-09-07T04:48:18.377Z,64.66
2022-09-07T04:49:18.382Z,64.56
2022-09-07T04:50:18.363Z,64.85
2022-09-07T04:51:18.357Z,64.66
2022-09-07T04:52:18.357Z,64.95
2022-09-07T04:53:18.501Z,64.76
2022-09-07T04:54:18.373Z,64.85
2022-09-07T04:55:18.403Z,64.66
2022-09-07T04:56:18.400Z,64.85
2022-09-07T04:57:18.366Z,64.95
2022-09-07T04:58:18.353Z,65.33
2022-09-07T04:59:18.355Z,64.95
2022-09-07T05:00:18.349Z,65.42
2022-09-07T05:01:18.425Z,65.33
2022-09-07T05:02:18.423Z,65.62
2022-09-07T05:03:18.358Z,65.81
2022-09-07T05:04:18.383Z,65.81
2022-09-07T05:05:18.359Z,65.42
2022-09-07T05:06:18.357Z,65.62
2022-09-07T05:07:18.370Z,65.62
2022-09-07T05:08:18.362Z,65.84
2022-09-07T05:09:18.358Z,65.33
2022-09-07T05:10:18.336Z,65.94
2022-09-07T05:11:18.337Z,65.33
2022-09-07T05:12:18.362Z,65.52
2022-09-07T05:13:18.381Z,65.62
2022-09-07T05:14:18.346Z,65.26
2022-09-07T05:15:18.358Z,64.95
2022-09-07T05:16:18.364Z,65.46
2022-09-07T05:17:18.354Z,65.42
2022-09-07T05:18:18.340Z,65.23
2022-09-07T05:19:18.361Z,65.81
2022-09-07T05:20:20.228Z,66.00
2022-09-07T05:21:18.335Z,66.00
2022-09-07T05:22:18.324Z,65.42
2022-09-07T05:23:18.323Z,65.14
2022-09-07T05:24:18.320Z,65.62
2022-09-07T05:25:18.340Z,66.00
2022-09-07T05:26:18.336Z,66.03
2022-09-07T05:27:18.330Z,66.00
2022-09-07T05:28:19.562Z,65.65
2022-09-07T05:31:19.236Z,66.00
2022-09-07T05:32:18.408Z,65.81
2022-09-07T05:33:18.331Z,65.75
2022-09-07T05:34:33.768Z,65.94
2022-09-07T05:35:18.374Z,67.63
2022-09-07T05:36:18.540Z,69.10
2022-09-07T05:37:18.371Z,69.87
2022-09-07T05:38:18.384Z,71.31
2022-09-07T05:39:18.487Z,71.21
2022-09-07T05:40:18.472Z,67.95
2022-09-07T05:41:18.351Z,65.75
2022-09-07T05:42:18.358Z,64.79
2022-09-07T05:43:18.370Z,64.59
2022-09-07T05:45:18.428Z,64.79
2022-09-07T05:46:18.388Z,65.08
2022-09-07T05:48:18.408Z,64.98
2022-09-07T05:49:18.466Z,65.36
2022-09-07T05:50:18.388Z,65.46
2022-09-07T05:51:18.410Z,65.26
2022-09-07T05:52:18.371Z,65.17
2022-09-07T05:53:19.071Z,65.17
2022-09-07T05:54:19.449Z,65.26
2022-09-07T05:55:30.034Z,65.84
2022-09-07T05:56:18.659Z,65.84
2022-09-07T05:57:18.464Z,66.42
2022-09-07T05:58:18.348Z,66.03
2022-09-07T05:59:18.355Z,65.55
2022-09-07T06:00:19.355Z,65.55
2022-09-07T06:01:18.384Z,66.03
2022-09-07T06:02:18.469Z,66.03
2022-09-07T06:03:18.444Z,66.03
2022-09-07T06:04:18.347Z,66.22
2022-09-07T06:05:18.360Z,66.03
2022-09-07T06:06:19.372Z,66.22
2022-09-07T06:07:21.991Z,66.42
2022-09-07T06:08:18.358Z,66.32
2022-09-07T06:09:18.324Z,65.94
2022-09-07T06:10:48.050Z,65.65
2022-09-07T06:11:18.344Z,65.84
2022-09-07T06:12:19.364Z,65.94
2022-09-07T06:13:18.350Z,66.03
2022-09-07T06:14:18.334Z,66.03
2022-09-07T06:15:18.377Z,65.94
2022-09-07T06:16:18.520Z,66.03
2022-09-07T06:17:18.371Z,66.03
2022-09-07T06:18:19.373Z,66.03
2022-09-07T06:19:19.178Z,66.03
2022-09-07T06:20:18.328Z,65.75
2022-09-07T06:21:18.343Z,66.22
2022-09-07T06:22:19.058Z,66.51
2022-09-07T06:23:18.374Z,66.32
2022-09-07T06:24:19.337Z,66.06
2022-09-07T06:25:18.362Z,66.51
2022-09-07T06:26:18.358Z,65.97
2022-09-07T06:27:18.336Z,65.68
2022-09-07T06:28:18.340Z,65.59
2022-09-07T06:29:18.329Z,65.39
2022-09-07T06:30:19.349Z,64.92
2022-09-07T06:31:19.187Z,65.49
2022-09-07T06:33:21.924Z,64.76
2022-09-07T06:34:18.335Z,64.37
2022-09-07T06:35:18.348Z,64.47
2022-09-07T06:36:19.350Z,64.37
2022-09-07T06:37:18.349Z,64.09
2022-09-07T06:38:18.378Z,64.09
2022-09-07T06:39:18.335Z,63.89
2022-09-07T06:40:18.351Z,63.89
2022-09-07T06:42:19.379Z,63.54
2022-09-07T06:43:18.368Z,63.25
2022-09-07T06:44:19.205Z,63.54
2022-09-07T06:45:18.376Z,62.96
2022-09-07T06:47:18.393Z,63.45
2022-09-07T06:48:19.404Z,63.16
2022-09-07T06:49:18.402Z,62.77
2022-09-07T06:50:18.427Z,63.54
2022-09-07T06:51:18.403Z,63.35
2022-09-07T06:52:18.414Z,63.45
2022-09-07T06:55:18.434Z,64.12
2022-09-07T06:56:18.437Z,64.50
2022-09-07T06:57:18.501Z,63.64
2022-09-07T06:58:18.461Z,64.22
2022-09-07T06:59:18.453Z,64.40
2022-09-07T07:00:19.457Z,64.40
2022-09-07T07:01:18.564Z,64.40
2022-09-07T07:02:18.474Z,64.02
2022-09-07T07:03:18.573Z,64.02
2022-09-07T07:04:18.489Z,63.73
2022-09-07T07:05:18.502Z,64.12
2022-09-07T07:06:19.492Z,64.40
2022-09-07T07:07:20.099Z,64.31
2022-09-07T07:08:20.194Z,64.50
2022-09-07T07:09:19.195Z,64.50
2022-09-07T07:10:23.623Z,64.22
2022-09-07T07:11:18.528Z,64.02
2022-09-07T07:14:21.353Z,63.57
2022-09-07T07:15:21.320Z,63.48
2022-09-07T07:17:25.351Z,63.28
2022-09-07T07:18:25.359Z,62.81
2022-09-07T07:20:29.403Z,62.84
2022-09-07T07:21:42.925Z,62.68
2022-09-07T07:23:33.402Z,60.59
2022-09-07T07:24:33.391Z,60.01
2022-09-07T07:26:37.436Z,59.56
2022-09-07T07:27:37.428Z,59.94
2022-09-07T07:29:41.458Z,58.05
2022-09-07T07:30:41.453Z,57.47
2022-09-07T07:32:45.495Z,57.60
2022-09-07T07:33:45.531Z,57.31
2022-09-07T07:35:49.541Z,56.09
2022-09-07T07:36:49.538Z,55.89
2022-09-07T07:39:01.462Z,55.24
2022-09-07T07:40:26.451Z,54.76
2022-09-07T07:42:00.363Z,55.15
2022-09-07T07:42:57.799Z,56.21
2022-09-07T07:43:57.779Z,56.52
2022-09-07T07:45:59.226Z,56.04
2022-09-07T07:46:57.958Z,55.94
2022-09-07T07:47:57.855Z,55.73
2022-09-07T07:48:57.890Z,56.52
2022-09-07T07:50:57.916Z,56.24
2022-09-07T07:53:58.434Z,55.36
2022-09-07T07:54:58.116Z,55.94
2022-09-07T07:55:57.930Z,55.76
2022-09-07T07:56:57.934Z,55.66
2022-09-07T07:57:57.951Z,55.94
2022-09-07T07:58:57.980Z,55.76
2022-09-07T07:59:58.016Z,55.56
2022-09-07T08:00:58.262Z,55.49
2022-09-07T08:01:58.206Z,54.91
2022-09-07T08:02:58.020Z,54.53
2022-09-07T08:03:58.010Z,54.53
2022-09-07T08:04:58.040Z,54.43
2022-09-07T08:05:58.039Z,54.75
2022-09-07T08:06:58.062Z,54.46
2022-09-07T08:07:58.071Z,53.69
2022-09-07T08:08:58.068Z,54.27
2022-09-07T08:09:58.107Z,53.78
2022-09-07T08:10:58.267Z,53.88
2022-09-07T08:11:58.134Z,53.88
2022-09-07T08:12:58.153Z,54.55
2022-09-07T08:13:58.141Z,53.69
2022-09-07T08:14:58.172Z,54.33
2022-09-07T08:15:58.175Z,53.66
2022-09-07T08:16:58.207Z,55.04
2022-09-07T08:17:58.222Z,54.94
2022-09-07T08:18:58.224Z,54.36
2022-09-07T08:19:58.229Z,54.55
2022-09-07T08:20:58.247Z,54.75
2022-09-07T08:21:58.251Z,54.94
2022-09-07T08:22:58.261Z,55.04
2022-09-07T08:23:58.278Z,55.62
2022-09-07T08:24:58.270Z,55.04
2022-09-07T08:25:58.299Z,54.94
2022-09-07T08:26:58.312Z,54.75
2022-09-07T08:27:58.350Z,54.36
2022-09-07T08:28:58.341Z,55.42
2022-09-07T08:29:58.372Z,55.04
2022-09-07T08:30:58.364Z,54.75
2022-09-07T08:31:58.421Z,55.23
2022-09-07T08:32:58.372Z,56.29
2022-09-07T08:33:58.417Z,55.16
2022-09-07T08:34:58.397Z,54.55
2022-09-07T08:35:58.404Z,54.94
2022-09-07T08:36:58.459Z,55.65
2022-09-07T08:37:58.417Z,55.74
2022-09-07T08:38:58.451Z,56.29
2022-09-07T08:39:58.542Z,55.93
2022-09-07T08:40:58.438Z,55.07
2022-09-07T08:41:58.482Z,55.62
2022-09-07T08:42:58.479Z,55.07
2022-09-07T08:43:58.469Z,54.68
2022-09-07T08:44:58.513Z,54.68
2022-09-07T08:45:58.548Z,54.49
2022-09-07T08:46:58.538Z,55.07
2022-09-07T08:47:58.496Z,55.04
2022-09-07T08:48:58.498Z,55.35
2022-09-07T08:49:58.508Z,55.52
2022-09-07T08:50:58.541Z,55.52
2022-09-07T08:51:58.512Z,56.22
2022-09-07T08:52:58.561Z,57.06
2022-09-07T08:53:58.535Z,57.06
2022-09-07T08:54:58.549Z,57.16
2022-09-07T08:55:58.573Z,56.29
2022-09-07T08:57:58.591Z,55.13
2022-09-07T08:58:58.577Z,55.55
2022-09-07T08:59:58.576Z,56.29
2022-09-07T09:03:28.984Z,56.10
2022-09-07T09:05:28.442Z,56.32
2022-09-07T09:05:58.754Z,56.39
2022-09-07T09:06:58.820Z,56.77
2022-09-07T09:07:58.670Z,56.71
2022-09-07T09:08:58.670Z,57.48
2022-09-07T09:09:58.642Z,56.20
2022-09-07T09:10:58.652Z,55.90
2022-09-07T09:11:58.642Z,57.57
2022-09-07T09:12:58.660Z,57.48
2022-09-07T09:13:58.666Z,57.29
2022-09-07T09:14:58.681Z,57.54
2022-09-07T09:15:58.769Z,56.71
2022-09-07T09:16:58.677Z,57.29
2022-09-07T09:17:58.691Z,57.48
2022-09-07T09:18:58.689Z,56.99
2022-09-07T09:19:58.698Z,57.38
2022-09-07T09:20:58.705Z,57.38
2022-09-07T09:21:58.715Z,56.41
2022-09-07T09:22:58.732Z,57.57
2022-09-07T09:23:58.724Z,57.38
2022-09-07T09:24:58.835Z,57.38
2022-09-07T09:25:58.753Z,57.09
2022-09-07T09:26:58.726Z,56.99
2022-09-07T09:27:58.754Z,57.77
2022-09-07T09:28:58.833Z,57.67
2022-09-07T09:29:58.740Z,57.64
2022-09-07T09:30:58.776Z,58.45
2022-09-07T09:31:58.741Z,58.83
2022-09-07T09:32:58.762Z,58.64
2022-09-07T09:33:58.747Z,57.77
2022-09-07T09:34:58.808Z,57.87
2022-09-07T09:35:58.771Z,57.45
2022-09-07T09:36:58.773Z,59.00
2022-09-07T09:37:58.822Z,58.83
2022-09-07T09:38:58.780Z,59.12
2022-09-07T09:40:02.220Z,57.96
2022-09-07T09:40:58.799Z,58.45
2022-09-07T09:41:58.797Z,58.73
2022-09-07T09:42:58.867Z,58.35
2022-09-07T09:43:58.817Z,58.73
2022-09-07T09:44:58.823Z,58.64
2022-09-07T09:46:14.173Z,58.93
2022-09-07T09:47:58.864Z,58.73
2022-09-07T09:48:58.860Z,58.83
2022-09-07T09:49:58.816Z,58.73
2022-09-07T09:52:58.842Z,59.51
2022-09-07T09:53:58.844Z,60.28
2022-09-07T09:55:17.171Z,60.47
2022-09-07T09:55:58.858Z,59.99
2022-09-07T09:56:58.863Z,59.99
2022-09-07T09:59:56.816Z,59.70
2022-09-07T10:00:01.968Z,59.80
2022-09-07T10:01:29.148Z,60.16
2022-09-07T10:04:01.090Z,60.28
2022-09-07T10:04:58.891Z,61.83
2022-09-07T10:05:58.908Z,61.41
2022-09-07T10:06:58.918Z,61.05
2022-09-07T10:07:58.964Z,61.25
2022-09-07T10:08:58.989Z,61.31
2022-09-07T10:09:58.918Z,61.51
2022-09-07T10:10:58.913Z,61.51
2022-09-07T10:12:06.735Z,62.31
2022-09-07T10:12:58.973Z,61.12
2022-09-07T10:13:58.931Z,61.51
2022-09-07T10:14:58.962Z,61.60
2022-09-07T10:15:58.989Z,62.37
2022-09-07T10:16:58.949Z,61.99
2022-09-07T10:17:58.954Z,62.47
2022-09-07T10:18:58.962Z,62.18
2022-09-07T10:19:58.968Z,62.08
2022-09-07T10:20:58.968Z,62.05
2022-09-07T10:21:59.034Z,62.86
2022-09-07T10:22:58.965Z,63.21
2022-09-07T10:23:58.988Z,63.34
2022-09-07T10:24:58.989Z,62.82
2022-09-07T10:25:58.987Z,62.82
2022-09-07T10:26:58.978Z,63.12
2022-09-07T10:27:59.006Z,62.92
2022-09-07T10:29:06.799Z,62.54
2022-09-07T10:29:59.010Z,63.02
2022-09-07T10:30:59.039Z,63.40
2022-09-07T10:31:59.008Z,63.70
2022-09-07T10:32:59.022Z,63.60
2022-09-07T10:34:59.031Z,63.40
2022-09-07T10:35:59.014Z,63.70
2022-09-07T10:36:59.042Z,63.89
2022-09-07T10:37:59.052Z,63.98
2022-09-07T10:38:59.059Z,64.37
2022-09-07T10:40:00.669Z,64.18
2022-09-07T10:40:59.025Z,64.28
2022-09-07T10:41:59.052Z,64.37
2022-09-07T10:43:59.065Z,64.76
2022-09-07T10:44:59.062Z,64.43
2022-09-07T10:45:59.130Z,64.66
2022-09-07T10:46:59.176Z,64.76
2022-09-07T10:47:59.107Z,64.72
2022-09-07T10:48:59.111Z,64.66
2022-09-07T10:50:28.483Z,64.56
2022-09-07T10:51:05.061Z,64.92
2022-09-07T10:51:59.083Z,65.34
2022-09-07T10:52:59.102Z,65.24
2022-09-07T10:54:59.108Z,65.53
2022-09-07T10:55:59.110Z,65.43
2022-09-07T10:56:59.096Z,65.24
2022-09-07T10:57:59.122Z,65.14
2022-09-07T10:59:03.259Z,65.24
2022-09-07T11:00:14.482Z,65.24
2022-09-07T11:00:59.184Z,65.43
2022-09-07T11:01:59.111Z,65.53
2022-09-07T11:03:59.219Z,65.53
2022-09-07T11:04:59.135Z,64.95
2022-09-07T11:05:59.130Z,65.91
2022-09-07T11:06:59.147Z,65.53
2022-09-07T11:07:59.149Z,65.91
2022-09-07T11:09:59.151Z,65.82
2022-09-07T11:10:59.154Z,65.82
2022-09-07T11:12:03.138Z,65.72
2022-09-07T11:12:59.177Z,66.01
2022-09-07T11:14:12.546Z,65.63
2022-09-07T11:14:59.171Z,65.63
2022-09-07T11:15:59.258Z,65.63
2022-09-07T11:16:59.301Z,65.91
2022-09-07T11:17:59.185Z,66.30
2022-09-07T11:19:59.195Z,66.49
2022-09-07T11:20:59.193Z,66.49
2022-09-07T11:21:59.201Z,66.59
2022-09-07T11:22:59.211Z,66.59
2022-09-07T11:23:59.202Z,66.30
2022-09-07T11:25:59.239Z,66.53
2022-09-07T11:26:59.212Z,66.78
2022-09-07T11:27:59.232Z,67.01
2022-09-07T11:29:59.227Z,66.33
2022-09-07T11:31:00.310Z,66.53
2022-09-07T11:31:59.225Z,66.24
2022-09-07T11:32:59.256Z,65.95
2022-09-07T11:34:59.236Z,66.24
2022-09-07T11:35:59.264Z,65.95
2022-09-07T11:36:59.267Z,66.24
2022-09-07T11:37:59.317Z,66.43
2022-09-07T11:38:59.272Z,66.53
2022-09-07T11:39:59.404Z,66.33
2022-09-07T11:40:59.268Z,66.53
2022-09-07T11:41:59.483Z,66.56
2022-09-07T11:42:59.293Z,66.14
2022-09-07T11:43:59.303Z,66.33
2022-09-07T11:44:59.280Z,66.08
2022-09-07T11:45:59.338Z,66.14
2022-09-07T11:46:59.319Z,66.46
2022-09-07T11:47:59.327Z,66.53
2022-09-07T11:48:59.353Z,66.53
2022-09-07T11:49:59.668Z,66.36
2022-09-07T11:50:59.324Z,66.33
2022-09-07T11:52:04.951Z,66.36
2022-09-07T11:52:59.336Z,66.72
2022-09-07T11:53:59.323Z,66.66
2022-09-07T11:54:59.359Z,66.36
2022-09-07T11:55:59.349Z,66.56
2022-09-07T11:56:59.368Z,66.75
2022-09-07T11:57:59.357Z,66.85
2022-09-07T11:58:59.363Z,66.66
2022-09-07T11:59:59.352Z,66.43
2022-09-07T12:00:59.368Z,66.53
2022-09-07T12:01:59.360Z,66.72
2022-09-07T12:03:00.812Z,66.85
2022-09-07T12:03:59.472Z,66.85
2022-09-07T12:04:59.524Z,66.82
2022-09-07T12:05:59.386Z,67.01
2022-09-07T12:06:59.367Z,67.01
2022-09-07T12:07:59.417Z,67.14
2022-09-07T12:08:59.407Z,66.66
2022-09-07T12:09:59.399Z,66.56
2022-09-07T12:10:59.417Z,66.56
2022-09-07T12:11:59.397Z,66.46
2022-09-07T12:12:59.436Z,66.75
2022-09-07T12:13:59.405Z,66.17
2022-09-07T12:14:59.411Z,66.27
2022-09-07T12:15:59.457Z,65.69
2022-09-07T12:16:59.438Z,65.59
2022-09-07T12:17:59.434Z,65.78
2022-09-07T12:18:59.432Z,65.50
2022-09-07T12:19:59.433Z,65.88
2022-09-07T12:20:59.511Z,65.88
2022-09-07T12:21:59.447Z,65.69
2022-09-07T12:23:04.313Z,65.34
2022-09-07T12:23:59.485Z,64.85
2022-09-07T12:24:59.460Z,64.66
2022-09-07T12:25:59.471Z,65.05
2022-09-07T12:26:59.479Z,64.95
2022-09-07T12:27:59.507Z,64.95
2022-09-07T12:28:59.467Z,64.72
2022-09-07T12:29:59.496Z,65.05
2022-09-07T12:30:59.534Z,64.82
2022-09-07T12:32:07.611Z,65.11
2022-09-07T12:32:59.532Z,65.24
2022-09-07T12:33:59.528Z,65.01
2022-09-07T12:34:59.498Z,64.95
2022-09-07T12:35:59.508Z,65.30
2022-09-07T12:36:59.534Z,65.01
2022-09-07T12:37:59.553Z,65.50
2022-09-07T12:38:59.527Z,65.30
2022-09-07T12:39:59.663Z,65.20
2022-09-07T12:40:59.554Z,65.11
2022-09-07T12:43:07.744Z,65.30
2022-09-07T12:44:00.788Z,65.30
2022-09-07T12:44:59.577Z,65.11
2022-09-07T12:45:59.622Z,65.88
2022-09-07T12:46:59.566Z,65.78
2022-09-07T12:47:59.577Z,65.78
2022-09-07T12:48:59.579Z,65.98
2022-09-07T12:49:59.570Z,66.08
2022-09-07T12:50:59.593Z,66.08
2022-09-07T12:52:03.302Z,65.69
2022-09-07T12:52:59.628Z,65.69
2022-09-07T12:53:59.611Z,65.69
2022-09-07T12:55:23.372Z,65.69
2022-09-07T12:57:29.666Z,65.40
2022-09-07T12:57:59.624Z,65.50
2022-09-07T12:58:59.612Z,65.78
2022-09-07T12:59:59.607Z,65.98
2022-09-07T13:00:59.642Z,66.36
2022-09-07T13:01:59.716Z,66.46
2022-09-07T13:02:59.633Z,66.36
2022-09-07T13:03:59.791Z,66.63
2022-09-07T13:04:59.704Z,66.56
2022-09-07T13:05:59.670Z,66.66
2022-09-07T13:07:03.091Z,66.27
2022-09-07T13:08:08.234Z,66.66
2022-09-07T13:08:59.677Z,66.36
2022-09-07T13:09:59.716Z,66.36
2022-09-07T13:10:59.685Z,66.91
2022-09-07T13:11:59.673Z,66.56
2022-09-07T13:12:59.700Z,66.36
2022-09-07T13:14:04.440Z,66.43
2022-09-07T13:14:59.680Z,66.66
2022-09-07T13:15:59.712Z,66.66
2022-09-07T13:17:28.799Z,66.63
2022-09-07T13:17:59.672Z,66.46
2022-09-07T13:18:59.686Z,66.46
2022-09-07T13:19:59.696Z,66.46
2022-09-07T13:20:59.704Z,66.66
2022-09-07T13:21:59.707Z,66.46
2022-09-07T13:22:59.720Z,66.53
2022-09-07T13:23:59.883Z,66.82
2022-09-07T13:24:59.796Z,66.56
2022-09-07T13:25:59.737Z,66.75
2022-09-07T13:26:59.747Z,66.82
2022-09-07T13:27:59.727Z,66.94
2022-09-07T13:29:00.018Z,66.53
2022-09-07T13:29:59.784Z,66.66
2022-09-07T13:30:59.792Z,66.56
2022-09-07T13:32:00.150Z,66.75
2022-09-07T13:33:15.088Z,66.56
2022-09-07T13:33:59.756Z,66.85
2022-09-07T13:34:59.771Z,66.94
2022-09-07T13:35:59.752Z,67.14
2022-09-07T13:36:59.769Z,67.04
2022-09-07T13:37:59.757Z,66.85